createdAt,value
2019-03-29T00:01:21.494Z,22.25
2019-03-29T00:03:50.109Z,28.25
2019-03-29T00:06:18.719Z,26.05
2019-03-29T00:08:47.295Z,27.13
2019-03-29T00:11:16.224Z,28.98
2019-03-29T00:13:45.215Z,29.67
2019-03-29T00:16:13.789Z,27.30
2019-03-29T00:18:42.391Z,27.82
2019-03-29T00:21:10.960Z,27.95
2019-03-29T00:23:39.538Z,29.20
2019-03-29T00:26:08.091Z,28.80
2019-03-29T00:28:36.980Z,32.42
2019-03-29T00:31:05.673Z,30.57
2019-03-29T00:33:34.313Z,32.67
2019-03-29T00:36:02.913Z,33.50
2019-03-29T00:38:31.577Z,34.73
2019-03-29T00:41:00.237Z,31.40
2019-03-29T00:43:28.805Z,31.57
2019-03-29T00:45:57.398Z,31.73
2019-03-29T00:48:25.972Z,31.10
2019-03-29T00:50:54.561Z,29.52
2019-03-29T00:53:23.434Z,30.23
2019-03-29T00:55:52.418Z,29.05
2019-03-29T00:58:21.004Z,28.98
2019-03-29T01:00:49.705Z,30.23
2019-03-29T01:03:18.331Z,28.52
2019-03-29T01:05:47.243Z,30.08
2019-03-29T01:08:15.876Z,29.55
2019-03-29T01:10:44.818Z,28.92
2019-03-29T01:13:13.450Z,31.65
2019-03-29T01:15:42.180Z,30.68
2019-03-29T01:18:11.812Z,29.72
2019-03-29T01:20:40.863Z,33.02
2019-03-29T01:23:09.578Z,34.23
2019-03-29T01:25:38.178Z,32.13
2019-03-29T01:28:06.749Z,35.15
2019-03-29T01:30:35.409Z,33.95
2019-03-29T01:33:04.412Z,31.97
2019-03-29T01:35:33.307Z,32.42
2019-03-29T01:38:02.196Z,35.60
2019-03-29T01:40:30.792Z,33.53
2019-03-29T01:42:59.368Z,30.65
2019-03-29T01:45:28.014Z,33.10
2019-03-29T01:47:56.932Z,33.35
2019-03-29T01:50:25.616Z,33.55
2019-03-29T01:52:54.538Z,33.75
2019-03-29T01:55:23.324Z,34.30
2019-03-29T01:57:52.169Z,34.13
2019-03-29T02:00:32.294Z,35.13
2019-03-29T02:03:01.037Z,37.03
2019-03-29T02:05:29.734Z,36.25
2019-03-29T02:07:58.650Z,35.05
2019-03-29T02:10:27.325Z,33.83
2019-03-29T02:12:56.031Z,34.50
2019-03-29T02:15:24.669Z,30.88
2019-03-29T02:17:53.267Z,33.13
2019-03-29T02:20:21.909Z,32.50
2019-03-29T02:22:50.481Z,32.17
2019-03-29T02:25:19.400Z,31.57
2019-03-29T02:27:47.995Z,34.75
2019-03-29T02:30:16.711Z,35.10
2019-03-29T02:32:45.269Z,40.83
2019-03-29T02:35:13.916Z,37.25
2019-03-29T02:37:42.833Z,40.15
2019-03-29T02:40:11.490Z,38.98
2019-03-29T02:42:40.070Z,38.73
2019-03-29T02:45:09.096Z,36.03
2019-03-29T02:47:37.782Z,36.65
2019-03-29T02:50:08.635Z,36.98
2019-03-29T02:52:37.092Z,34.75
2019-03-29T02:55:06.961Z,36.93
2019-03-29T02:57:35.691Z,33.58
2019-03-29T03:00:07.369Z,34.53
2019-03-29T03:02:36.017Z,33.48
2019-03-29T03:05:05.625Z,33.98
2019-03-29T03:07:34.341Z,31.93
2019-03-29T03:10:03.736Z,30.43
2019-03-29T03:12:32.290Z,31.50
2019-03-29T03:15:00.888Z,32.63
2019-03-29T03:17:29.438Z,34.00
2019-03-29T03:19:58.015Z,31.40
2019-03-29T03:22:26.603Z,28.62
2019-03-29T03:24:55.278Z,29.18
2019-03-29T03:27:23.839Z,28.45
2019-03-29T03:29:52.419Z,28.12
2019-03-29T03:32:21.007Z,28.55
2019-03-29T03:34:49.588Z,28.38
2019-03-29T03:37:18.409Z,26.60
2019-03-29T03:39:47.357Z,26.90
2019-03-29T03:42:16.097Z,27.70
2019-03-29T03:44:44.665Z,28.35
2019-03-29T03:47:13.323Z,28.52
2019-03-29T03:49:42.235Z,27.77
2019-03-29T03:52:11.217Z,27.35
2019-03-29T03:54:39.959Z,28.00
2019-03-29T03:57:10.334Z,27.27
2019-03-29T03:59:39.267Z,26.65
2019-03-29T04:02:07.839Z,26.77
2019-03-29T04:04:37.860Z,26.07
2019-03-29T04:07:06.712Z,26.90
2019-03-29T04:09:48.558Z,26.85
2019-03-29T04:12:05.836Z,25.32
2019-03-29T04:14:34.413Z,24.65
2019-03-29T04:17:02.993Z,25.45
2019-03-29T04:19:31.558Z,23.50
2019-03-29T04:22:00.617Z,24.15
2019-03-29T04:24:29.390Z,24.43
2019-03-29T04:26:58.256Z,23.83
2019-03-29T04:29:26.820Z,22.00
2019-03-29T04:31:55.774Z,23.55
2019-03-29T04:34:24.416Z,21.70
2019-03-29T04:36:53.274Z,23.77
2019-03-29T04:39:21.853Z,24.25
2019-03-29T04:41:50.421Z,26.00
2019-03-29T04:44:19.324Z,25.12
2019-03-29T04:46:47.906Z,24.02
2019-03-29T04:49:16.896Z,25.72
2019-03-29T04:51:45.726Z,24.87
2019-03-29T04:54:14.385Z,23.65
2019-03-29T04:56:42.947Z,24.47
2019-03-29T04:59:11.530Z,23.55
2019-03-29T05:01:40.099Z,23.35
2019-03-29T05:04:08.700Z,23.40
2019-03-29T05:06:37.315Z,22.17
2019-03-29T05:09:06.458Z,23.80
2019-03-29T05:11:35.018Z,22.80
2019-03-29T05:14:03.795Z,22.37
2019-03-29T05:16:32.494Z,23.30
2019-03-29T05:19:01.144Z,24.27
2019-03-29T05:21:29.708Z,23.92
2019-03-29T05:23:58.684Z,23.87
2019-03-29T05:26:27.230Z,24.92
2019-03-29T05:28:55.880Z,23.90
2019-03-29T05:31:24.515Z,27.93
2019-03-29T05:33:53.093Z,26.62
2019-03-29T05:36:21.673Z,25.35
2019-03-29T05:38:50.254Z,27.42
2019-03-29T05:41:18.831Z,27.27
2019-03-29T05:43:47.410Z,31.10
2019-03-29T05:46:15.979Z,36.45
2019-03-29T05:48:44.584Z,40.48
2019-03-29T05:51:13.458Z,42.13
2019-03-29T05:53:42.028Z,46.23
2019-03-29T05:56:10.587Z,44.80
2019-03-29T05:58:39.257Z,43.05
2019-03-29T06:01:07.827Z,43.92
2019-03-29T06:03:36.403Z,42.58
2019-03-29T06:06:05.109Z,45.03
2019-03-29T06:08:33.679Z,45.20
2019-03-29T06:11:02.597Z,45.60
2019-03-29T06:13:31.164Z,44.88
2019-03-29T06:15:59.762Z,47.78
2019-03-29T06:18:28.326Z,49.93
2019-03-29T06:20:56.855Z,54.45
2019-03-29T06:23:25.550Z,56.35
2019-03-29T06:25:54.133Z,59.55
2019-03-29T06:28:22.702Z,61.23
2019-03-29T06:30:51.372Z,63.20
2019-03-29T06:33:19.952Z,65.12
2019-03-29T06:35:50.747Z,74.15
2019-03-29T06:38:22.389Z,74.40
2019-03-29T06:41:02.279Z,81.45
2019-03-29T06:43:21.251Z,85.12
2019-03-29T06:45:49.841Z,91.25
2019-03-29T06:48:18.489Z,97.97
2019-03-29T06:50:47.359Z,92.27
2019-03-29T06:53:15.991Z,98.22
2019-03-29T06:55:44.648Z,101.20
2019-03-29T06:58:13.303Z,104.47
2019-03-29T07:00:41.923Z,102.97
2019-03-29T07:03:10.600Z,109.10
2019-03-29T07:05:39.577Z,109.57
2019-03-29T07:08:08.243Z,109.10
2019-03-29T07:10:36.906Z,111.42
2019-03-29T07:13:05.500Z,109.15
2019-03-29T07:15:34.076Z,112.05
2019-03-29T07:18:02.664Z,107.50
2019-03-29T07:20:31.236Z,106.75
2019-03-29T07:23:00.197Z,97.05
2019-03-29T07:25:28.781Z,99.62
2019-03-29T07:27:57.695Z,97.20
2019-03-29T07:30:26.413Z,85.55
2019-03-29T07:32:54.979Z,94.25
2019-03-29T07:35:23.607Z,90.77
2019-03-29T07:37:52.189Z,87.53
2019-03-29T07:40:20.801Z,88.90
2019-03-29T07:42:49.397Z,88.25
2019-03-29T07:45:17.968Z,85.97
2019-03-29T07:47:46.560Z,79.82
2019-03-29T07:50:15.200Z,76.90
2019-03-29T07:52:44.381Z,76.28
2019-03-29T07:55:13.100Z,75.97
2019-03-29T07:57:41.697Z,69.55
2019-03-29T08:00:10.492Z,69.65
2019-03-29T08:02:39.108Z,66.07
2019-03-29T08:05:09.689Z,65.05
2019-03-29T08:07:38.352Z,65.33
2019-03-29T08:10:07.089Z,62.07
2019-03-29T08:12:35.724Z,59.98
2019-03-29T08:15:09.254Z,58.33
2019-03-29T08:17:36.627Z,59.63
2019-03-29T08:20:37.626Z,55.20
2019-03-29T08:22:36.204Z,59.60
2019-03-29T08:25:05.045Z,55.50
2019-03-29T08:27:33.789Z,57.27
2019-03-29T08:30:02.410Z,54.00
2019-03-29T08:32:30.990Z,57.47
2019-03-29T08:34:59.562Z,54.70
2019-03-29T08:37:28.120Z,55.13
2019-03-29T08:39:56.777Z,56.67
2019-03-29T08:42:25.297Z,53.73
2019-03-29T08:44:53.881Z,54.23
2019-03-29T08:47:22.439Z,56.07
2019-03-29T08:49:51.195Z,56.37
2019-03-29T08:52:19.731Z,58.37
2019-03-29T08:54:51.079Z,55.97
2019-03-29T08:57:18.467Z,59.97
2019-03-29T08:59:47.073Z,55.93
2019-03-29T09:02:15.778Z,57.53
2019-03-29T09:04:44.545Z,56.63
2019-03-29T09:07:13.101Z,56.57
2019-03-29T09:09:41.757Z,56.67
2019-03-29T09:12:14.809Z,56.90
2019-03-29T09:14:40.565Z,54.23
2019-03-29T09:17:09.152Z,53.70
2019-03-29T09:19:38.054Z,52.77
2019-03-29T09:22:06.641Z,52.87
2019-03-29T09:24:35.540Z,52.07
2019-03-29T09:27:04.193Z,50.23
2019-03-29T09:29:32.846Z,50.67
2019-03-29T09:32:01.420Z,51.37
2019-03-29T09:34:29.995Z,47.97
2019-03-29T09:37:00.091Z,49.73
2019-03-29T09:39:29.806Z,49.07
2019-03-29T09:41:58.375Z,47.10
2019-03-29T09:44:26.947Z,46.07
2019-03-29T09:46:55.505Z,44.57
2019-03-29T09:49:24.203Z,44.50
2019-03-29T09:51:52.858Z,44.57
2019-03-29T09:54:21.440Z,43.90
2019-03-29T09:56:50.048Z,42.53
2019-03-29T09:59:18.682Z,41.87
2019-03-29T10:01:48.865Z,41.90
2019-03-29T10:04:17.441Z,42.47
2019-03-29T10:06:46.016Z,40.67
2019-03-29T10:09:14.579Z,44.23
2019-03-29T10:11:43.621Z,42.93
2019-03-29T10:14:12.181Z,40.80
2019-03-29T10:16:40.845Z,40.20
2019-03-29T10:19:09.487Z,40.27
2019-03-29T10:21:38.604Z,38.53
2019-03-29T10:24:07.144Z,36.63
2019-03-29T10:26:36.170Z,34.90
2019-03-29T10:29:08.162Z,35.37
2019-03-29T10:31:37.033Z,35.03
2019-03-29T10:34:05.581Z,34.70
2019-03-29T10:36:34.183Z,33.50
2019-03-29T10:39:02.915Z,34.40
2019-03-29T10:41:34.151Z,30.43
2019-03-29T10:44:01.856Z,30.23
2019-03-29T10:46:30.931Z,31.03
2019-03-29T10:48:59.479Z,31.57
2019-03-29T10:51:28.059Z,30.53
2019-03-29T10:53:56.619Z,29.93
2019-03-29T10:56:33.821Z,31.17
2019-03-29T10:58:55.483Z,29.93
2019-03-29T11:01:24.865Z,27.67
2019-03-29T11:03:53.506Z,27.97
2019-03-29T11:06:22.149Z,28.27
2019-03-29T11:08:50.741Z,26.10
2019-03-29T11:11:19.393Z,27.00
2019-03-29T11:13:48.114Z,29.73
2019-03-29T11:16:16.721Z,28.83
2019-03-29T11:18:45.857Z,26.00
2019-03-29T11:21:14.708Z,26.60
2019-03-29T11:23:43.629Z,24.90
2019-03-29T11:26:12.251Z,26.37
2019-03-29T11:28:40.837Z,26.40
2019-03-29T11:31:09.552Z,24.33
2019-03-29T11:33:38.484Z,25.37
2019-03-29T11:36:07.367Z,24.80
2019-03-29T11:38:35.976Z,26.87
2019-03-29T11:41:04.606Z,24.83
2019-03-29T11:43:33.549Z,25.93
2019-03-29T11:46:02.257Z,26.23
2019-03-29T11:48:30.866Z,25.93
2019-03-29T11:50:59.819Z,28.03
2019-03-29T11:53:28.555Z,27.43
2019-03-29T11:55:57.296Z,26.17
2019-03-29T11:58:25.870Z,23.53
2019-03-29T12:00:54.547Z,22.37
2019-03-29T12:03:23.124Z,25.53
2019-03-29T12:05:51.853Z,26.03
2019-03-29T12:08:20.777Z,25.73
2019-03-29T12:10:49.448Z,26.17
2019-03-29T12:13:18.018Z,25.67
2019-03-29T12:15:46.681Z,28.87
2019-03-29T12:18:15.388Z,25.93
2019-03-29T12:20:44.116Z,25.47
2019-03-29T12:23:13.093Z,26.40
2019-03-29T12:25:41.992Z,27.07
2019-03-29T12:28:10.551Z,27.00
2019-03-29T12:30:39.885Z,25.53
2019-03-29T12:33:08.504Z,25.47
2019-03-29T12:35:37.169Z,26.03
2019-03-29T12:38:05.795Z,25.00
2019-03-29T12:40:34.400Z,22.20
2019-03-29T12:43:02.968Z,22.57
2019-03-29T12:45:31.702Z,24.33
2019-03-29T12:48:00.446Z,24.80
2019-03-29T12:50:29.062Z,23.23
2019-03-29T12:52:57.664Z,22.27
2019-03-29T12:55:26.217Z,21.77
2019-03-29T12:57:54.865Z,21.13
2019-03-29T13:00:23.509Z,23.07
2019-03-29T13:02:52.221Z,22.73
2019-03-29T13:05:20.874Z,23.13
2019-03-29T13:07:52.825Z,21.47
2019-03-29T13:10:19.837Z,21.90
2019-03-29T13:12:48.420Z,24.20
2019-03-29T13:15:17.138Z,23.47
2019-03-29T13:17:45.706Z,22.57
2019-03-29T13:20:14.426Z,23.30
2019-03-29T13:22:43.086Z,25.47
2019-03-29T13:25:12.203Z,24.53
2019-03-29T13:27:40.789Z,24.23
2019-03-29T13:30:10.010Z,25.13
2019-03-29T13:32:38.662Z,27.17
2019-03-29T13:35:07.875Z,25.90
2019-03-29T13:37:36.506Z,25.90
2019-03-29T13:40:10.502Z,24.33
2019-03-29T13:42:39.444Z,24.87
2019-03-29T13:45:09.155Z,25.37
2019-03-29T13:47:38.017Z,25.27
2019-03-29T13:50:08.506Z,26.23
2019-03-29T13:52:37.171Z,26.13
2019-03-29T13:55:06.593Z,25.77
2019-03-29T13:57:35.370Z,24.43
2019-03-29T14:00:09.437Z,24.27
2019-03-29T14:02:38.163Z,24.77
2019-03-29T14:05:07.183Z,23.80
2019-03-29T14:07:35.837Z,26.40
2019-03-29T14:10:07.419Z,25.93
2019-03-29T14:12:36.169Z,24.80
2019-03-29T14:15:07.074Z,24.83
2019-03-29T14:17:35.698Z,25.57
2019-03-29T14:20:05.702Z,25.07
2019-03-29T14:22:35.120Z,23.43
2019-03-29T14:25:04.616Z,23.17
2019-03-29T14:27:33.597Z,25.63
2019-03-29T14:30:04.616Z,24.53
2019-03-29T14:32:32.535Z,23.87
2019-03-29T14:35:01.105Z,25.87
2019-03-29T14:37:29.701Z,24.13
2019-03-29T14:39:58.674Z,23.77
2019-03-29T14:42:27.208Z,23.33
2019-03-29T14:44:55.774Z,24.97
2019-03-29T14:47:38.127Z,31.07
2019-03-29T14:49:54.578Z,36.40
2019-03-29T14:52:23.166Z,36.97
2019-03-29T14:54:52.256Z,35.60
2019-03-29T14:57:20.805Z,36.23
2019-03-29T14:59:49.341Z,39.10
2019-03-29T15:02:17.925Z,38.93
2019-03-29T15:04:46.579Z,38.70
2019-03-29T15:07:15.211Z,37.17
2019-03-29T15:09:44.293Z,34.80
2019-03-29T15:12:12.850Z,39.07
2019-03-29T15:14:41.450Z,37.50
2019-03-29T15:17:10.466Z,38.40
2019-03-29T15:19:39.207Z,38.57
2019-03-29T15:22:07.800Z,38.57
2019-03-29T15:24:36.403Z,39.63
2019-03-29T15:27:05.237Z,40.20
2019-03-29T15:29:33.834Z,43.67
2019-03-29T15:32:02.504Z,42.37
2019-03-29T15:34:31.062Z,40.10
2019-03-29T15:36:59.672Z,42.40
2019-03-29T15:39:28.222Z,43.63
2019-03-29T15:41:56.750Z,41.17
2019-03-29T15:44:25.643Z,44.00
2019-03-29T15:46:54.230Z,42.93
2019-03-29T15:49:22.795Z,45.63
2019-03-29T15:51:51.395Z,42.33
2019-03-29T15:54:19.949Z,44.80
2019-03-29T15:56:48.528Z,44.07
2019-03-29T15:59:17.119Z,43.87
2019-03-29T16:01:46.178Z,43.63
2019-03-29T16:04:14.730Z,40.37
2019-03-29T16:06:43.352Z,40.30
2019-03-29T16:09:12.040Z,39.67
2019-03-29T16:11:40.608Z,40.10
2019-03-29T16:14:09.480Z,45.23
2019-03-29T16:16:38.049Z,41.40
2019-03-29T16:19:06.650Z,43.27
2019-03-29T16:21:35.297Z,45.47
2019-03-29T16:24:04.026Z,46.50
2019-03-29T16:26:32.738Z,46.23
2019-03-29T16:29:01.380Z,44.67
2019-03-29T16:31:30.054Z,49.87
2019-03-29T16:33:58.657Z,49.57
2019-03-29T16:36:27.217Z,48.53
2019-03-29T16:38:55.826Z,51.10
2019-03-29T16:41:24.820Z,49.03
2019-03-29T16:43:53.468Z,50.13
2019-03-29T16:46:22.044Z,51.73
2019-03-29T16:48:50.687Z,51.37
2019-03-29T16:51:19.285Z,52.73
2019-03-29T16:53:47.892Z,50.27
2019-03-29T16:56:16.483Z,51.03
2019-03-29T16:58:45.448Z,53.40
2019-03-29T17:01:14.112Z,51.93
2019-03-29T17:03:42.740Z,51.80
2019-03-29T17:06:11.321Z,53.73
2019-03-29T17:08:40.007Z,51.20
2019-03-29T17:11:08.666Z,50.87
2019-03-29T17:13:37.252Z,51.13
2019-03-29T17:16:05.968Z,53.37
2019-03-29T17:18:34.547Z,55.37
2019-03-29T17:21:03.423Z,51.57
2019-03-29T17:23:32.134Z,51.20
2019-03-29T17:26:00.740Z,52.67
2019-03-29T17:28:29.317Z,51.10
2019-03-29T17:30:59.610Z,54.13
2019-03-29T17:33:28.207Z,50.87
2019-03-29T17:35:56.764Z,52.53
2019-03-29T17:38:25.427Z,51.83
2019-03-29T17:40:54.093Z,51.87
2019-03-29T17:43:22.683Z,51.07
2019-03-29T17:45:51.263Z,50.97
2019-03-29T17:48:19.931Z,55.33
2019-03-29T17:50:48.956Z,54.27
2019-03-29T17:53:17.859Z,53.73
2019-03-29T17:55:46.440Z,53.37
2019-03-29T17:58:15.038Z,54.17
2019-03-29T18:00:43.715Z,54.90
2019-03-29T18:03:12.296Z,52.97
2019-03-29T18:05:41.293Z,54.17
2019-03-29T18:08:09.943Z,53.83
2019-03-29T18:10:38.559Z,54.93
2019-03-29T18:13:07.185Z,53.43
2019-03-29T18:15:35.771Z,54.87
2019-03-29T18:18:04.491Z,56.40
2019-03-29T18:20:33.147Z,54.93
2019-03-29T18:23:01.715Z,55.87
2019-03-29T18:25:30.444Z,56.53
2019-03-29T18:27:59.008Z,54.43
2019-03-29T18:30:41.786Z,54.50
2019-03-29T18:33:10.933Z,54.50
2019-03-29T18:35:39.583Z,55.60
2019-03-29T18:38:08.991Z,54.93
2019-03-29T18:40:37.553Z,56.00
2019-03-29T18:43:06.275Z,57.07
2019-03-29T18:45:34.932Z,55.97
2019-03-29T18:48:03.976Z,56.50
2019-03-29T18:50:32.708Z,56.10
2019-03-29T18:53:01.772Z,54.63
2019-03-29T18:55:30.504Z,59.17
2019-03-29T18:57:59.138Z,56.90
2019-03-29T19:00:30.120Z,57.90
2019-03-29T19:02:59.109Z,56.80
2019-03-29T19:05:27.911Z,56.33
2019-03-29T19:07:56.923Z,58.03
2019-03-29T19:10:25.864Z,56.67
2019-03-29T19:12:54.531Z,60.17
2019-03-29T19:15:23.098Z,57.47
2019-03-29T19:17:51.690Z,58.37
2019-03-29T19:20:27.207Z,57.57
2019-03-29T19:22:50.593Z,60.93
2019-03-29T19:25:19.236Z,59.23
2019-03-29T19:27:48.216Z,60.70
2019-03-29T19:30:17.767Z,60.00
2019-03-29T19:32:46.398Z,61.80
2019-03-29T19:35:15.114Z,61.70
2019-03-29T19:37:43.788Z,63.73
2019-03-29T19:40:12.522Z,63.07
2019-03-29T19:42:41.089Z,61.27
2019-03-29T19:45:11.107Z,61.27
2019-03-29T19:47:40.123Z,59.67
2019-03-29T19:50:10.170Z,60.73
2019-03-29T19:52:38.736Z,61.37
2019-03-29T19:55:07.525Z,63.07
2019-03-29T19:57:36.238Z,59.67
2019-03-29T20:00:13.595Z,61.80
2019-03-29T20:02:42.666Z,60.70
2019-03-29T20:05:28.488Z,60.53
2019-03-29T20:07:57.298Z,60.43
2019-03-29T20:10:26.454Z,60.60
2019-03-29T20:12:55.951Z,64.10
2019-03-29T20:15:24.704Z,60.97
2019-03-29T20:17:53.438Z,56.93
2019-03-29T20:20:23.762Z,61.60
2019-03-29T20:22:54.771Z,59.93
2019-03-29T20:25:23.905Z,60.27
2019-03-29T20:27:52.724Z,57.97
2019-03-29T20:30:21.365Z,59.17
2019-03-29T20:32:50.030Z,59.60
2019-03-29T20:35:18.689Z,60.27
2019-03-29T20:37:47.287Z,59.70
2019-03-29T20:40:15.988Z,59.17
2019-03-29T20:42:44.664Z,59.57
2019-03-29T20:45:13.314Z,58.40
2019-03-29T20:47:42.740Z,62.27
2019-03-29T20:50:11.662Z,59.67
2019-03-29T20:52:40.286Z,60.73
2019-03-29T20:55:08.932Z,59.33
2019-03-29T20:57:37.629Z,61.00
2019-03-29T21:00:08.445Z,59.37
2019-03-29T21:02:37.089Z,59.13
2019-03-29T21:05:08.211Z,59.37
2019-03-29T21:07:37.307Z,61.27
2019-03-29T21:10:07.203Z,60.93
2019-03-29T21:12:35.751Z,62.17
2019-03-29T21:15:05.582Z,59.43
2019-03-29T21:17:34.264Z,60.63
2019-03-29T21:20:03.017Z,58.40
2019-03-29T21:22:31.583Z,62.90
2019-03-29T21:25:00.426Z,59.20
2019-03-29T21:27:29.135Z,58.27
2019-03-29T21:29:57.813Z,58.87
2019-03-29T21:32:26.386Z,59.87
2019-03-29T21:34:55.038Z,60.27
2019-03-29T21:37:23.621Z,61.27
2019-03-29T21:39:52.362Z,58.10
2019-03-29T21:42:21.834Z,61.63
2019-03-29T21:44:50.332Z,61.13
2019-03-29T21:47:18.956Z,60.07
2019-03-29T21:49:47.580Z,59.23
2019-03-29T21:52:16.120Z,59.03
2019-03-29T21:54:45.069Z,60.80
2019-03-29T21:57:13.758Z,60.50
2019-03-29T21:59:42.411Z,61.97
2019-03-29T22:02:11.023Z,60.23
2019-03-29T22:04:39.597Z,61.90
2019-03-29T22:07:08.194Z,61.30
2019-03-29T22:09:37.430Z,57.70
2019-03-29T22:12:07.461Z,63.43
2019-03-29T22:14:36.034Z,60.43
2019-03-29T22:17:05.021Z,60.10
2019-03-29T22:19:33.600Z,62.47
2019-03-29T22:22:02.187Z,59.87
2019-03-29T22:24:30.852Z,59.43
2019-03-29T22:26:59.437Z,62.00
2019-03-29T22:29:28.057Z,59.97
2019-03-29T22:31:56.708Z,61.53
2019-03-29T22:34:25.392Z,63.70
2019-03-29T22:36:54.034Z,60.37
2019-03-29T22:39:22.626Z,62.93
2019-03-29T22:41:51.195Z,62.43
2019-03-29T22:44:19.802Z,63.47
2019-03-29T22:46:48.435Z,63.37
2019-03-29T22:49:17.080Z,62.80
2019-03-29T22:51:45.648Z,64.13
2019-03-29T22:54:14.751Z,63.57
2019-03-29T22:56:43.771Z,66.20
2019-03-29T22:59:12.416Z,64.70
2019-03-29T23:01:43.794Z,63.27
2019-03-29T23:04:12.436Z,64.53
2019-03-29T23:06:41.038Z,61.33
2019-03-29T23:09:11.785Z,64.47
2019-03-29T23:11:40.112Z,64.27
2019-03-29T23:14:08.821Z,61.70
2019-03-29T23:16:37.409Z,64.60
2019-03-29T23:19:07.155Z,64.60
2019-03-29T23:21:35.917Z,67.73
2019-03-29T23:24:04.600Z,65.20
2019-03-29T23:26:33.261Z,65.00
2019-03-29T23:29:01.841Z,66.37
2019-03-29T23:31:30.734Z,66.77
2019-03-29T23:33:59.318Z,67.00
2019-03-29T23:36:27.934Z,69.17
2019-03-29T23:38:56.568Z,67.23
2019-03-29T23:41:25.162Z,65.77
2019-03-29T23:43:53.843Z,65.13
2019-03-29T23:46:22.429Z,67.47
2019-03-29T23:48:51.019Z,67.20
2019-03-29T23:51:19.593Z,67.50
2019-03-29T23:53:48.176Z,67.23
2019-03-29T23:56:17.126Z,67.10
2019-03-29T23:58:45.723Z,66.77
